sensor_id;sensor_type;location;lat;lon;timestamp;temperature;humidity
7530;DHT22;3806;52.270;10.544;2023-04-15T00:00:07;9.50;99.90
7530;DHT22;3806;52.270;10.544;2023-04-15T00:02:34;9.50;99.90
7530;DHT22;3806;52.270;10.544;2023-04-15T00:05:00;9.50;99.90
7530;DHT22;3806;52.270;10.544;2023-04-15T00:07:25;9.50;99.90
7530;DHT22;3806;52.270;10.544;2023-04-15T00:09:51;9.50;99.90
7530;DHT22;3806;52.270;10.544;2023-04-15T00:12:20;9.50;99.90
7530;DHT22;3806;52.270;10.544;2023-04-15T00:14:46;9.50;99.90
7530;DHT22;3806;52.270;10.544;2023-04-15T00:17:11;9.60;99.90
7530;DHT22;3806;52.270;10.544;2023-04-15T00:19:37;9.50;99.90
7530;DHT22;3806;52.270;10.544;2023-04-15T00:22:03;9.60;99.90
7530;DHT22;3806;52.270;10.544;2023-04-15T00:24:28;9.60;99.90
7530;DHT22;3806;52.270;10.544;2023-04-15T00:26:55;9.60;99.90
7530;DHT22;3806;52.270;10.544;2023-04-15T00:29:21;9.60;99.90
7530;DHT22;3806;52.270;10.544;2023-04-15T00:31:46;9.60;99.90
7530;DHT22;3806;52.270;10.544;2023-04-15T00:34:12;9.60;99.90
7530;DHT22;3806;52.270;10.544;2023-04-15T00:36:38;9.60;99.90
7530;DHT22;3806;52.270;10.544;2023-04-15T00:39:03;9.50;99.90
7530;DHT22;3806;52.270;10.544;2023-04-15T00:41:29;9.50;99.90
7530;DHT22;3806;52.270;10.544;2023-04-15T00:43:55;9.50;99.90
7530;DHT22;3806;52.270;10.544;2023-04-15T00:46:21;9.50;99.90
7530;DHT22;3806;52.270;10.544;2023-04-15T00:48:47;9.50;99.90
7530;DHT22;3806;52.270;10.544;2023-04-15T00:51:13;9.50;99.90
7530;DHT22;3806;52.270;10.544;2023-04-15T00:53:39;9.50;99.90
7530;DHT22;3806;52.270;10.544;2023-04-15T00:56:06;9.50;99.90
7530;DHT22;3806;52.270;10.544;2023-04-15T00:58:31;9.50;99.90
7530;DHT22;3806;52.270;10.544;2023-04-15T01:00:57;9.40;99.90
7530;DHT22;3806;52.270;10.544;2023-04-15T01:03:23;9.40;99.90
7530;DHT22;3806;52.270;10.544;2023-04-15T01:05:49;9.40;99.90
7530;DHT22;3806;52.270;10.544;2023-04-15T01:08:14;9.40;99.90
7530;DHT22;3806;52.270;10.544;2023-04-15T01:10:40;9.40;99.90
7530;DHT22;3806;52.270;10.544;2023-04-15T01:13:06;9.40;99.90
7530;DHT22;3806;52.270;10.544;2023-04-15T01:15:32;9.40;99.90
7530;DHT22;3806;52.270;10.544;2023-04-15T01:17:58;9.40;99.90
7530;DHT22;3806;52.270;10.544;2023-04-15T01:20:24;9.40;99.90
7530;DHT22;3806;52.270;10.544;2023-04-15T01:22:50;9.30;99.90
7530;DHT22;3806;52.270;10.544;2023-04-15T01:25:17;9.40;99.90
7530;DHT22;3806;52.270;10.544;2023-04-15T01:27:44;9.40;99.90
7530;DHT22;3806;52.270;10.544;2023-04-15T01:30:10;9.40;99.90
7530;DHT22;3806;52.270;10.544;2023-04-15T01:32:36;9.40;99.90
7530;DHT22;3806;52.270;10.544;2023-04-15T01:35:01;9.30;99.90
7530;DHT22;3806;52.270;10.544;2023-04-15T01:37:27;9.30;99.90
7530;DHT22;3806;52.270;10.544;2023-04-15T01:39:53;9.30;99.90
7530;DHT22;3806;52.270;10.544;2023-04-15T01:42:20;9.30;99.90
7530;DHT22;3806;52.270;10.544;2023-04-15T01:44:46;9.20;99.90
7530;DHT22;3806;52.270;10.544;2023-04-15T01:47:12;9.20;99.90
7530;DHT22;3806;52.270;10.544;2023-04-15T01:49:37;9.20;99.90
7530;DHT22;3806;52.270;10.544;2023-04-15T01:52:03;9.20;99.90
7530;DHT22;3806;52.270;10.544;2023-04-15T01:54:28;9.20;99.90
7530;DHT22;3806;52.270;10.544;2023-04-15T01:56:54;9.20;99.90
7530;DHT22;3806;52.270;10.544;2023-04-15T01:59:20;9.20;99.90
7530;DHT22;3806;52.270;10.544;2023-04-15T02:01:47;9.20;99.90
7530;DHT22;3806;52.270;10.544;2023-04-15T02:04:12;9.20;99.90
7530;DHT22;3806;52.270;10.544;2023-04-15T02:06:41;9.20;99.90
7530;DHT22;3806;52.270;10.544;2023-04-15T02:09:08;9.20;99.90
7530;DHT22;3806;52.270;10.544;2023-04-15T02:11:34;9.10;99.90
7530;DHT22;3806;52.270;10.544;2023-04-15T02:14:01;9.20;99.90
7530;DHT22;3806;52.270;10.544;2023-04-15T02:16:27;9.20;99.90
7530;DHT22;3806;52.270;10.544;2023-04-15T02:18:52;9.20;99.90
7530;DHT22;3806;52.270;10.544;2023-04-15T02:21:17;9.20;99.90
7530;DHT22;3806;52.270;10.544;2023-04-15T02:23:43;9.20;99.90
7530;DHT22;3806;52.270;10.544;2023-04-15T02:26:11;9.20;99.90
7530;DHT22;3806;52.270;10.544;2023-04-15T02:28:37;9.20;99.90
7530;DHT22;3806;52.270;10.544;2023-04-15T02:31:06;9.20;99.90
7530;DHT22;3806;52.270;10.544;2023-04-15T02:33:32;9.10;99.90
7530;DHT22;3806;52.270;10.544;2023-04-15T02:35:58;9.10;99.90
7530;DHT22;3806;52.270;10.544;2023-04-15T02:38:24;9.10;99.90
7530;DHT22;3806;52.270;10.544;2023-04-15T02:40:49;9.10;99.90
7530;DHT22;3806;52.270;10.544;2023-04-15T02:43:15;9.10;99.90
7530;DHT22;3806;52.270;10.544;2023-04-15T02:45:42;9.10;99.90
7530;DHT22;3806;52.270;10.544;2023-04-15T02:48:08;9.10;99.90
7530;DHT22;3806;52.270;10.544;2023-04-15T02:50:33;9.10;99.90
7530;DHT22;3806;52.270;10.544;2023-04-15T02:53:00;9.10;99.90
7530;DHT22;3806;52.270;10.544;2023-04-15T02:55:26;9.00;99.90
7530;DHT22;3806;52.270;10.544;2023-04-15T02:57:52;9.10;99.90
7530;DHT22;3806;52.270;10.544;2023-04-15T03:00:18;9.10;99.90
7530;DHT22;3806;52.270;10.544;2023-04-15T03:02:46;9.00;99.90
7530;DHT22;3806;52.270;10.544;2023-04-15T03:05:13;9.00;99.90
7530;DHT22;3806;52.270;10.544;2023-04-15T03:07:38;9.00;99.90
7530;DHT22;3806;52.270;10.544;2023-04-15T03:10:07;9.00;99.90
7530;DHT22;3806;52.270;10.544;2023-04-15T03:12:33;9.10;99.90
7530;DHT22;3806;52.270;10.544;2023-04-15T03:14:58;9.10;99.90
7530;DHT22;3806;52.270;10.544;2023-04-15T03:17:26;9.10;99.90
7530;DHT22;3806;52.270;10.544;2023-04-15T03:19:51;9.00;99.90
7530;DHT22;3806;52.270;10.544;2023-04-15T03:22:17;9.00;99.90
7530;DHT22;3806;52.270;10.544;2023-04-15T03:24:42;9.00;99.90
7530;DHT22;3806;52.270;10.544;2023-04-15T03:27:08;9.00;99.90
7530;DHT22;3806;52.270;10.544;2023-04-15T03:29:33;8.90;99.90
7530;DHT22;3806;52.270;10.544;2023-04-15T03:31:59;8.90;99.90
7530;DHT22;3806;52.270;10.544;2023-04-15T03:34:24;9.00;99.90
7530;DHT22;3806;52.270;10.544;2023-04-15T03:36:50;8.90;99.90
7530;DHT22;3806;52.270;10.544;2023-04-15T03:39:15;8.90;99.90
7530;DHT22;3806;52.270;10.544;2023-04-15T03:41:41;8.90;99.90
7530;DHT22;3806;52.270;10.544;2023-04-15T03:44:06;8.90;99.90
7530;DHT22;3806;52.270;10.544;2023-04-15T03:46:32;8.90;99.90
7530;DHT22;3806;52.270;10.544;2023-04-15T03:48:58;8.90;99.90
7530;DHT22;3806;52.270;10.544;2023-04-15T03:51:24;8.90;99.90
7530;DHT22;3806;52.270;10.544;2023-04-15T03:53:49;8.80;99.90
7530;DHT22;3806;52.270;10.544;2023-04-15T03:56:15;8.80;99.90
7530;DHT22;3806;52.270;10.544;2023-04-15T03:58:42;8.80;99.90
7530;DHT22;3806;52.270;10.544;2023-04-15T04:01:08;8.80;99.90
7530;DHT22;3806;52.270;10.544;2023-04-15T04:03:34;8.80;99.90
7530;DHT22;3806;52.270;10.544;2023-04-15T04:06:00;8.80;99.90
7530;DHT22;3806;52.270;10.544;2023-04-15T04:08:26;8.80;99.90
7530;DHT22;3806;52.270;10.544;2023-04-15T04:10:52;8.80;99.90
7530;DHT22;3806;52.270;10.544;2023-04-15T04:13:18;8.80;99.90
7530;DHT22;3806;52.270;10.544;2023-04-15T04:15:44;8.90;99.90
7530;DHT22;3806;52.270;10.544;2023-04-15T04:18:09;8.90;99.90
7530;DHT22;3806;52.270;10.544;2023-04-15T04:20:35;8.90;99.90
7530;DHT22;3806;52.270;10.544;2023-04-15T04:23:01;8.90;99.90
7530;DHT22;3806;52.270;10.544;2023-04-15T04:25:27;8.90;99.90
7530;DHT22;3806;52.270;10.544;2023-04-15T04:27:52;8.90;99.90
7530;DHT22;3806;52.270;10.544;2023-04-15T04:30:18;8.90;99.90
7530;DHT22;3806;52.270;10.544;2023-04-15T04:32:43;8.90;99.90
7530;DHT22;3806;52.270;10.544;2023-04-15T04:35:09;8.80;99.90
7530;DHT22;3806;52.270;10.544;2023-04-15T04:37:34;8.80;99.90
7530;DHT22;3806;52.270;10.544;2023-04-15T04:40:00;8.80;99.90
7530;DHT22;3806;52.270;10.544;2023-04-15T04:42:26;8.70;99.90
7530;DHT22;3806;52.270;10.544;2023-04-15T04:44:51;8.70;99.90
7530;DHT22;3806;52.270;10.544;2023-04-15T04:47:17;8.70;99.90
7530;DHT22;3806;52.270;10.544;2023-04-15T04:49:42;8.80;99.90
7530;DHT22;3806;52.270;10.544;2023-04-15T04:52:08;8.80;99.90
7530;DHT22;3806;52.270;10.544;2023-04-15T04:54:34;8.80;99.90
7530;DHT22;3806;52.270;10.544;2023-04-15T04:57:00;8.80;99.90
7530;DHT22;3806;52.270;10.544;2023-04-15T04:59:25;8.70;99.90
7530;DHT22;3806;52.270;10.544;2023-04-15T05:01:51;8.70;99.90
7530;DHT22;3806;52.270;10.544;2023-04-15T05:04:17;8.70;99.90
7530;DHT22;3806;52.270;10.544;2023-04-15T05:06:42;8.70;99.90
7530;DHT22;3806;52.270;10.544;2023-04-15T05:09:08;8.70;99.90
7530;DHT22;3806;52.270;10.544;2023-04-15T05:11:33;8.70;99.90
7530;DHT22;3806;52.270;10.544;2023-04-15T05:14:02;8.80;99.90
7530;DHT22;3806;52.270;10.544;2023-04-15T05:16:27;8.80;99.90
7530;DHT22;3806;52.270;10.544;2023-04-15T05:18:53;8.80;99.90
7530;DHT22;3806;52.270;10.544;2023-04-15T05:21:19;8.80;99.90
7530;DHT22;3806;52.270;10.544;2023-04-15T05:23:45;8.80;99.90
7530;DHT22;3806;52.270;10.544;2023-04-15T05:26:10;8.80;99.90
7530;DHT22;3806;52.270;10.544;2023-04-15T05:28:36;8.80;99.90
7530;DHT22;3806;52.270;10.544;2023-04-15T05:31:01;8.70;99.90
7530;DHT22;3806;52.270;10.544;2023-04-15T05:33:27;8.70;99.90
7530;DHT22;3806;52.270;10.544;2023-04-15T05:35:52;8.70;99.90
7530;DHT22;3806;52.270;10.544;2023-04-15T05:38:18;8.70;99.90
7530;DHT22;3806;52.270;10.544;2023-04-15T05:40:43;8.80;99.90
7530;DHT22;3806;52.270;10.544;2023-04-15T05:43:09;8.80;99.90
7530;DHT22;3806;52.270;10.544;2023-04-15T05:45:34;8.80;99.90
7530;DHT22;3806;52.270;10.544;2023-04-15T05:48:00;8.80;99.90
7530;DHT22;3806;52.270;10.544;2023-04-15T05:50:25;8.80;99.90
7530;DHT22;3806;52.270;10.544;2023-04-15T05:52:51;8.80;99.90
7530;DHT22;3806;52.270;10.544;2023-04-15T05:55:16;8.80;99.90
7530;DHT22;3806;52.270;10.544;2023-04-15T05:57:42;8.80;99.90
7530;DHT22;3806;52.270;10.544;2023-04-15T06:00:08;8.80;99.90
7530;DHT22;3806;52.270;10.544;2023-04-15T06:02:34;8.80;99.90
7530;DHT22;3806;52.270;10.544;2023-04-15T06:05:00;8.80;99.90
7530;DHT22;3806;52.270;10.544;2023-04-15T06:07:26;8.90;99.90
7530;DHT22;3806;52.270;10.544;2023-04-15T06:09:51;8.90;99.90
7530;DHT22;3806;52.270;10.544;2023-04-15T06:12:17;8.80;99.90
7530;DHT22;3806;52.270;10.544;2023-04-15T06:14:42;8.90;99.90
7530;DHT22;3806;52.270;10.544;2023-04-15T06:17:08;8.80;99.90
7530;DHT22;3806;52.270;10.544;2023-04-15T06:19:34;8.90;99.90
7530;DHT22;3806;52.270;10.544;2023-04-15T06:22:01;8.90;99.90
7530;DHT22;3806;52.270;10.544;2023-04-15T06:24:27;8.90;99.90
7530;DHT22;3806;52.270;10.544;2023-04-15T06:26:53;8.90;99.90
7530;DHT22;3806;52.270;10.544;2023-04-15T06:29:18;8.90;99.90
7530;DHT22;3806;52.270;10.544;2023-04-15T06:31:46;8.90;99.90
7530;DHT22;3806;52.270;10.544;2023-04-15T06:34:12;9.00;99.90
7530;DHT22;3806;52.270;10.544;2023-04-15T06:36:38;9.00;99.90
7530;DHT22;3806;52.270;10.544;2023-04-15T06:39:03;9.00;99.90
7530;DHT22;3806;52.270;10.544;2023-04-15T06:41:29;8.80;99.90
7530;DHT22;3806;52.270;10.544;2023-04-15T06:43:55;9.00;99.90
7530;DHT22;3806;52.270;10.544;2023-04-15T06:46:21;9.00;99.90
7530;DHT22;3806;52.270;10.544;2023-04-15T06:48:46;9.00;99.90
7530;DHT22;3806;52.270;10.544;2023-04-15T06:51:12;9.00;99.90
7530;DHT22;3806;52.270;10.544;2023-04-15T06:53:37;9.10;99.90
7530;DHT22;3806;52.270;10.544;2023-04-15T06:56:07;9.10;99.90
7530;DHT22;3806;52.270;10.544;2023-04-15T06:58:32;9.10;99.90
7530;DHT22;3806;52.270;10.544;2023-04-15T07:00:58;9.10;99.90
7530;DHT22;3806;52.270;10.544;2023-04-15T07:03:23;9.10;99.90
7530;DHT22;3806;52.270;10.544;2023-04-15T07:05:49;9.10;99.90
7530;DHT22;3806;52.270;10.544;2023-04-15T07:08:15;9.10;99.90
7530;DHT22;3806;52.270;10.544;2023-04-15T07:10:40;9.10;99.90
7530;DHT22;3806;52.270;10.544;2023-04-15T07:13:06;9.10;99.90
7530;DHT22;3806;52.270;10.544;2023-04-15T07:15:33;9.10;99.90
7530;DHT22;3806;52.270;10.544;2023-04-15T07:17:58;9.20;99.90
7530;DHT22;3806;52.270;10.544;2023-04-15T07:20:25;9.20;99.90
7530;DHT22;3806;52.270;10.544;2023-04-15T07:22:51;9.20;99.90
7530;DHT22;3806;52.270;10.544;2023-04-15T07:25:17;9.20;99.90
7530;DHT22;3806;52.270;10.544;2023-04-15T07:27:43;9.30;99.90
7530;DHT22;3806;52.270;10.544;2023-04-15T07:30:09;9.30;99.90
7530;DHT22;3806;52.270;10.544;2023-04-15T07:32:35;9.30;99.90
7530;DHT22;3806;52.270;10.544;2023-04-15T07:35:01;9.30;99.90
7530;DHT22;3806;52.270;10.544;2023-04-15T07:37:28;9.30;99.90
7530;DHT22;3806;52.270;10.544;2023-04-15T07:39:54;9.30;99.90
7530;DHT22;3806;52.270;10.544;2023-04-15T07:42:20;9.30;99.90
7530;DHT22;3806;52.270;10.544;2023-04-15T07:44:46;9.30;99.90
7530;DHT22;3806;52.270;10.544;2023-04-15T07:47:12;9.30;99.90
7530;DHT22;3806;52.270;10.544;2023-04-15T07:49:37;9.40;99.90
7530;DHT22;3806;52.270;10.544;2023-04-15T07:52:04;9.40;99.90
7530;DHT22;3806;52.270;10.544;2023-04-15T07:54:30;9.40;99.90
7530;DHT22;3806;52.270;10.544;2023-04-15T07:56:56;9.50;99.90
7530;DHT22;3806;52.270;10.544;2023-04-15T07:59:21;9.60;99.90
7530;DHT22;3806;52.270;10.544;2023-04-15T08:01:47;9.60;99.90
7530;DHT22;3806;52.270;10.544;2023-04-15T08:04:13;9.70;99.90
7530;DHT22;3806;52.270;10.544;2023-04-15T08:06:38;9.70;99.90
7530;DHT22;3806;52.270;10.544;2023-04-15T08:09:05;9.80;99.90
7530;DHT22;3806;52.270;10.544;2023-04-15T08:11:31;9.80;99.90
7530;DHT22;3806;52.270;10.544;2023-04-15T08:13:57;9.70;99.90
7530;DHT22;3806;52.270;10.544;2023-04-15T08:16:24;9.80;99.90
7530;DHT22;3806;52.270;10.544;2023-04-15T08:18:51;9.70;99.90
7530;DHT22;3806;52.270;10.544;2023-04-15T08:21:17;9.80;99.90
7530;DHT22;3806;52.270;10.544;2023-04-15T08:23:45;9.80;99.90
7530;DHT22;3806;52.270;10.544;2023-04-15T08:26:11;9.80;99.90
7530;DHT22;3806;52.270;10.544;2023-04-15T08:28:39;9.80;99.90
7530;DHT22;3806;52.270;10.544;2023-04-15T08:31:05;9.80;99.90
7530;DHT22;3806;52.270;10.544;2023-04-15T08:33:31;9.90;99.90
7530;DHT22;3806;52.270;10.544;2023-04-15T08:35:57;9.90;99.90
7530;DHT22;3806;52.270;10.544;2023-04-15T08:38:48;9.90;99.90
7530;DHT22;3806;52.270;10.544;2023-04-15T08:41:20;9.90;99.90
7530;DHT22;3806;52.270;10.544;2023-04-15T08:44:08;9.90;99.90
7530;DHT22;3806;52.270;10.544;2023-04-15T08:46:34;9.90;99.90
7530;DHT22;3806;52.270;10.544;2023-04-15T08:49:00;9.90;99.90
7530;DHT22;3806;52.270;10.544;2023-04-15T08:51:28;9.90;99.90
7530;DHT22;3806;52.270;10.544;2023-04-15T08:53:54;9.90;99.90
7530;DHT22;3806;52.270;10.544;2023-04-15T08:56:24;9.80;99.90
7530;DHT22;3806;52.270;10.544;2023-04-15T08:58:50;9.80;99.90
7530;DHT22;3806;52.270;10.544;2023-04-15T09:01:16;9.90;99.90
7530;DHT22;3806;52.270;10.544;2023-04-15T09:03:43;9.90;99.90
7530;DHT22;3806;52.270;10.544;2023-04-15T09:06:10;9.90;99.90
7530;DHT22;3806;52.270;10.544;2023-04-15T09:08:36;9.90;99.90
7530;DHT22;3806;52.270;10.544;2023-04-15T09:11:02;9.90;99.90
7530;DHT22;3806;52.270;10.544;2023-04-15T09:13:29;10.00;99.90
7530;DHT22;3806;52.270;10.544;2023-04-15T09:15:55;9.90;99.90
7530;DHT22;3806;52.270;10.544;2023-04-15T09:18:30;9.80;99.90
7530;DHT22;3806;52.270;10.544;2023-04-15T09:21:13;9.80;99.90
7530;DHT22;3806;52.270;10.544;2023-04-15T09:23:52;9.80;99.90
7530;DHT22;3806;52.270;10.544;2023-04-15T09:26:19;9.80;99.90
7530;DHT22;3806;52.270;10.544;2023-04-15T09:28:44;9.80;99.90
7530;DHT22;3806;52.270;10.544;2023-04-15T09:31:10;9.80;99.90
7530;DHT22;3806;52.270;10.544;2023-04-15T09:33:54;9.90;99.90
7530;DHT22;3806;52.270;10.544;2023-04-15T09:36:21;9.90;99.90
7530;DHT22;3806;52.270;10.544;2023-04-15T09:38:59;9.90;99.90
7530;DHT22;3806;52.270;10.544;2023-04-15T09:41:25;9.90;99.90
7530;DHT22;3806;52.270;10.544;2023-04-15T09:43:51;9.90;99.90
7530;DHT22;3806;52.270;10.544;2023-04-15T09:46:17;9.90;99.90
7530;DHT22;3806;52.270;10.544;2023-04-15T09:48:43;9.90;99.90
7530;DHT22;3806;52.270;10.544;2023-04-15T09:51:08;9.80;99.90
7530;DHT22;3806;52.270;10.544;2023-04-15T09:53:35;9.90;99.90
7530;DHT22;3806;52.270;10.544;2023-04-15T09:56:01;9.90;99.90
7530;DHT22;3806;52.270;10.544;2023-04-15T09:58:30;9.90;99.90
7530;DHT22;3806;52.270;10.544;2023-04-15T10:00:57;9.90;99.90
7530;DHT22;3806;52.270;10.544;2023-04-15T10:03:27;9.90;99.90
7530;DHT22;3806;52.270;10.544;2023-04-15T10:05:54;9.90;99.90
7530;DHT22;3806;52.270;10.544;2023-04-15T10:08:22;9.90;99.90
7530;DHT22;3806;52.270;10.544;2023-04-15T10:10:49;9.90;99.90
7530;DHT22;3806;52.270;10.544;2023-04-15T10:13:19;9.90;99.90
7530;DHT22;3806;52.270;10.544;2023-04-15T10:15:55;9.90;99.90
7530;DHT22;3806;52.270;10.544;2023-04-15T10:18:24;9.90;99.90
7530;DHT22;3806;52.270;10.544;2023-04-15T10:20:52;9.90;99.90
7530;DHT22;3806;52.270;10.544;2023-04-15T10:23:18;10.00;99.90
7530;DHT22;3806;52.270;10.544;2023-04-15T10:25:45;10.00;99.90
7530;DHT22;3806;52.270;10.544;2023-04-15T10:28:13;10.00;99.90
7530;DHT22;3806;52.270;10.544;2023-04-15T10:30:39;10.10;99.90
7530;DHT22;3806;52.270;10.544;2023-04-15T10:33:06;10.00;99.90
7530;DHT22;3806;52.270;10.544;2023-04-15T10:35:33;10.10;99.90
7530;DHT22;3806;52.270;10.544;2023-04-15T10:37:59;10.10;99.90
7530;DHT22;3806;52.270;10.544;2023-04-15T10:40:31;10.10;99.90
7530;DHT22;3806;52.270;10.544;2023-04-15T10:43:01;10.20;99.90
7530;DHT22;3806;52.270;10.544;2023-04-15T10:45:31;10.30;99.90
7530;DHT22;3806;52.270;10.544;2023-04-15T10:47:58;10.30;99.90
7530;DHT22;3806;52.270;10.544;2023-04-15T10:50:26;10.30;99.90
7530;DHT22;3806;52.270;10.544;2023-04-15T10:52:53;10.30;99.90
7530;DHT22;3806;52.270;10.544;2023-04-15T10:55:21;10.30;99.90
7530;DHT22;3806;52.270;10.544;2023-04-15T10:57:53;10.30;99.90
7530;DHT22;3806;52.270;10.544;2023-04-15T11:00:24;10.30;99.90
7530;DHT22;3806;52.270;10.544;2023-04-15T11:03:09;10.20;99.90
7530;DHT22;3806;52.270;10.544;2023-04-15T11:08:07;10.20;99.90
7530;DHT22;3806;52.270;10.544;2023-04-15T11:13:16;10.20;99.90
7530;DHT22;3806;52.270;10.544;2023-04-15T11:15:46;10.10;99.90
7530;DHT22;3806;52.270;10.544;2023-04-15T11:18:14;10.10;99.90
7530;DHT22;3806;52.270;10.544;2023-04-15T11:20:42;10.10;99.90
7530;DHT22;3806;52.270;10.544;2023-04-15T11:23:09;10.10;99.90
7530;DHT22;3806;52.270;10.544;2023-04-15T11:25:35;10.10;99.90
7530;DHT22;3806;52.270;10.544;2023-04-15T11:28:04;10.10;99.90
7530;DHT22;3806;52.270;10.544;2023-04-15T11:30:31;10.10;99.90
7530;DHT22;3806;52.270;10.544;2023-04-15T11:33:05;10.10;99.90
7530;DHT22;3806;52.270;10.544;2023-04-15T11:35:31;10.10;99.90
7530;DHT22;3806;52.270;10.544;2023-04-15T11:37:57;10.10;99.90
7530;DHT22;3806;52.270;10.544;2023-04-15T11:40:28;10.10;99.90
7530;DHT22;3806;52.270;10.544;2023-04-15T11:45:31;10.20;99.90
7530;DHT22;3806;52.270;10.544;2023-04-15T11:48:06;10.20;99.90
7530;DHT22;3806;52.270;10.544;2023-04-15T11:50:32;10.20;99.90
7530;DHT22;3806;52.270;10.544;2023-04-15T11:52:59;10.20;99.90
7530;DHT22;3806;52.270;10.544;2023-04-15T11:55:26;10.20;99.90
7530;DHT22;3806;52.270;10.544;2023-04-15T11:58:15;10.20;99.90
7530;DHT22;3806;52.270;10.544;2023-04-15T12:00:53;10.20;99.90
7530;DHT22;3806;52.270;10.544;2023-04-15T12:03:27;10.20;99.90
7530;DHT22;3806;52.270;10.544;2023-04-15T12:13:56;10.40;99.90
7530;DHT22;3806;52.270;10.544;2023-04-15T12:16:23;10.50;99.90
7530;DHT22;3806;52.270;10.544;2023-04-15T12:18:53;10.50;99.90
7530;DHT22;3806;52.270;10.544;2023-04-15T12:21:25;10.60;99.90
7530;DHT22;3806;52.270;10.544;2023-04-15T12:23:52;10.60;99.90
7530;DHT22;3806;52.270;10.544;2023-04-15T12:26:28;10.60;99.90
7530;DHT22;3806;52.270;10.544;2023-04-15T12:28:54;10.70;99.90
7530;DHT22;3806;52.270;10.544;2023-04-15T12:31:21;10.70;99.90
7530;DHT22;3806;52.270;10.544;2023-04-15T12:33:48;10.80;99.90
7530;DHT22;3806;52.270;10.544;2023-04-15T12:36:14;10.90;99.90
7530;DHT22;3806;52.270;10.544;2023-04-15T12:38:39;11.00;99.90
7530;DHT22;3806;52.270;10.544;2023-04-15T12:41:05;11.10;99.90
7530;DHT22;3806;52.270;10.544;2023-04-15T12:43:31;11.10;99.90
7530;DHT22;3806;52.270;10.544;2023-04-15T12:45:56;11.20;99.90
7530;DHT22;3806;52.270;10.544;2023-04-15T12:48:22;11.10;99.90
7530;DHT22;3806;52.270;10.544;2023-04-15T12:50:48;11.20;99.90
7530;DHT22;3806;52.270;10.544;2023-04-15T12:53:13;11.30;99.90
7530;DHT22;3806;52.270;10.544;2023-04-15T12:55:39;11.40;99.90
7530;DHT22;3806;52.270;10.544;2023-04-15T12:58:04;11.40;99.90
7530;DHT22;3806;52.270;10.544;2023-04-15T13:00:33;11.40;99.90
7530;DHT22;3806;52.270;10.544;2023-04-15T13:02:58;11.50;99.90
7530;DHT22;3806;52.270;10.544;2023-04-15T13:05:24;11.60;99.90
7530;DHT22;3806;52.270;10.544;2023-04-15T13:07:49;11.70;99.90
7530;DHT22;3806;52.270;10.544;2023-04-15T13:10:15;11.60;99.90
7530;DHT22;3806;52.270;10.544;2023-04-15T13:12:41;11.80;99.90
7530;DHT22;3806;52.270;10.544;2023-04-15T13:15:07;11.80;99.90
7530;DHT22;3806;52.270;10.544;2023-04-15T13:17:35;11.90;99.90
7530;DHT22;3806;52.270;10.544;2023-04-15T13:20:00;11.90;99.90
7530;DHT22;3806;52.270;10.544;2023-04-15T13:22:26;12.00;99.90
7530;DHT22;3806;52.270;10.544;2023-04-15T13:24:51;12.00;99.90
7530;DHT22;3806;52.270;10.544;2023-04-15T13:27:17;12.00;99.90
7530;DHT22;3806;52.270;10.544;2023-04-15T13:29:42;12.00;99.90
7530;DHT22;3806;52.270;10.544;2023-04-15T13:32:08;12.10;99.90
7530;DHT22;3806;52.270;10.544;2023-04-15T13:34:33;12.20;99.90
7530;DHT22;3806;52.270;10.544;2023-04-15T13:37:05;12.30;99.90
7530;DHT22;3806;52.270;10.544;2023-04-15T13:39:31;12.40;99.90
7530;DHT22;3806;52.270;10.544;2023-04-15T13:41:56;12.40;99.90
7530;DHT22;3806;52.270;10.544;2023-04-15T13:44:22;12.50;99.90
7530;DHT22;3806;52.270;10.544;2023-04-15T13:46:47;12.50;99.90
7530;DHT22;3806;52.270;10.544;2023-04-15T13:49:13;12.50;99.90
7530;DHT22;3806;52.270;10.544;2023-04-15T13:51:38;12.60;99.90
7530;DHT22;3806;52.270;10.544;2023-04-15T13:54:04;12.60;99.90
7530;DHT22;3806;52.270;10.544;2023-04-15T13:56:30;12.70;99.90
7530;DHT22;3806;52.270;10.544;2023-04-15T13:58:56;12.70;99.90
7530;DHT22;3806;52.270;10.544;2023-04-15T14:01:24;12.70;99.90
7530;DHT22;3806;52.270;10.544;2023-04-15T14:03:49;12.80;99.90
7530;DHT22;3806;52.270;10.544;2023-04-15T14:06:15;12.70;99.90
7530;DHT22;3806;52.270;10.544;2023-04-15T14:08:41;12.70;99.90
7530;DHT22;3806;52.270;10.544;2023-04-15T14:11:06;12.70;99.90
7530;DHT22;3806;52.270;10.544;2023-04-15T14:13:32;12.70;99.90
7530;DHT22;3806;52.270;10.544;2023-04-15T14:15:57;12.60;99.90
7530;DHT22;3806;52.270;10.544;2023-04-15T14:18:23;12.60;99.90
7530;DHT22;3806;52.270;10.544;2023-04-15T14:20:48;12.60;99.90
7530;DHT22;3806;52.270;10.544;2023-04-15T14:23:14;12.50;99.90
7530;DHT22;3806;52.270;10.544;2023-04-15T14:25:43;12.40;99.90
7530;DHT22;3806;52.270;10.544;2023-04-15T14:28:11;12.40;99.90
7530;DHT22;3806;52.270;10.544;2023-04-15T14:30:36;12.40;99.90
7530;DHT22;3806;52.270;10.544;2023-04-15T14:33:02;12.40;99.90
7530;DHT22;3806;52.270;10.544;2023-04-15T14:35:28;12.40;99.90
7530;DHT22;3806;52.270;10.544;2023-04-15T14:37:53;12.30;99.90
7530;DHT22;3806;52.270;10.544;2023-04-15T14:40:20;12.20;99.90
7530;DHT22;3806;52.270;10.544;2023-04-15T14:42:45;12.30;99.90
7530;DHT22;3806;52.270;10.544;2023-04-15T14:45:11;12.20;99.90
7530;DHT22;3806;52.270;10.544;2023-04-15T14:47:36;12.20;99.90
7530;DHT22;3806;52.270;10.544;2023-04-15T14:50:02;12.20;99.90
7530;DHT22;3806;52.270;10.544;2023-04-15T14:52:30;12.20;99.90
7530;DHT22;3806;52.270;10.544;2023-04-15T14:55:11;12.20;99.90
7530;DHT22;3806;52.270;10.544;2023-04-15T14:57:38;12.20;99.90
7530;DHT22;3806;52.270;10.544;2023-04-15T15:00:05;12.20;99.90
7530;DHT22;3806;52.270;10.544;2023-04-15T15:02:32;12.20;99.90
7530;DHT22;3806;52.270;10.544;2023-04-15T15:04:59;12.20;99.90
7530;DHT22;3806;52.270;10.544;2023-04-15T15:07:28;12.20;99.90
7530;DHT22;3806;52.270;10.544;2023-04-15T15:09:54;12.20;99.90
7530;DHT22;3806;52.270;10.544;2023-04-15T15:12:20;12.20;99.90
7530;DHT22;3806;52.270;10.544;2023-04-15T15:14:47;12.20;99.90
7530;DHT22;3806;52.270;10.544;2023-04-15T15:17:12;12.20;99.90
7530;DHT22;3806;52.270;10.544;2023-04-15T15:19:38;12.20;99.90
7530;DHT22;3806;52.270;10.544;2023-04-15T15:22:03;12.20;99.90
7530;DHT22;3806;52.270;10.544;2023-04-15T15:24:30;12.20;99.90
7530;DHT22;3806;52.270;10.544;2023-04-15T15:26:56;12.10;99.90
7530;DHT22;3806;52.270;10.544;2023-04-15T15:29:22;12.10;99.90
7530;DHT22;3806;52.270;10.544;2023-04-15T15:31:47;12.20;99.90
7530;DHT22;3806;52.270;10.544;2023-04-15T15:34:14;12.20;99.90
7530;DHT22;3806;52.270;10.544;2023-04-15T15:36:39;12.10;99.90
7530;DHT22;3806;52.270;10.544;2023-04-15T15:39:05;12.10;99.90
7530;DHT22;3806;52.270;10.544;2023-04-15T15:41:31;12.20;99.90
7530;DHT22;3806;52.270;10.544;2023-04-15T15:43:57;12.20;99.90
7530;DHT22;3806;52.270;10.544;2023-04-15T15:46:23;12.20;99.90
7530;DHT22;3806;52.270;10.544;2023-04-15T15:48:49;12.20;99.90
7530;DHT22;3806;52.270;10.544;2023-04-15T15:51:14;12.20;99.90
7530;DHT22;3806;52.270;10.544;2023-04-15T15:53:42;12.20;99.90
7530;DHT22;3806;52.270;10.544;2023-04-15T15:56:19;12.20;99.90
7530;DHT22;3806;52.270;10.544;2023-04-15T15:58:45;12.20;99.90
7530;DHT22;3806;52.270;10.544;2023-04-15T16:01:10;12.20;99.90
7530;DHT22;3806;52.270;10.544;2023-04-15T16:03:36;12.20;99.90
7530;DHT22;3806;52.270;10.544;2023-04-15T16:06:03;12.20;99.90
7530;DHT22;3806;52.270;10.544;2023-04-15T16:08:28;12.20;99.90